createdAt,value
2017-08-26T00:01:36.919Z,101696.61
2017-08-26T00:04:05.173Z,101697.38
2017-08-26T00:06:34.786Z,101697.84
2017-08-26T00:09:04.540Z,101690.28
2017-08-26T00:11:33.130Z,101686.02
2017-08-26T00:14:07.404Z,101677.00
2017-08-26T00:16:36.752Z,101677.48
2017-08-26T00:19:05.484Z,101672.33
2017-08-26T00:21:34.027Z,101667.31
2017-08-26T00:24:03.201Z,101673.13
2017-08-26T00:26:33.446Z,101674.17
2017-08-26T00:29:02.258Z,101674.59
2017-08-26T00:31:31.376Z,101670.69
2017-08-26T00:34:02.104Z,101662.95
2017-08-26T00:36:32.656Z,101658.87
2017-08-26T00:39:02.176Z,101656.70
2017-08-26T00:41:32.156Z,101657.51
2017-08-26T00:44:01.030Z,101657.34
2017-08-26T00:46:29.089Z,101655.22
2017-08-26T00:49:03.149Z,101651.55
2017-08-26T00:51:32.244Z,101655.14
2017-08-26T00:54:00.846Z,101654.37
2017-08-26T00:56:29.588Z,101654.02
2017-08-26T00:58:57.544Z,101649.17
2017-08-26T01:01:25.874Z,101646.00
2017-08-26T01:03:59.353Z,101654.92
2017-08-26T01:06:28.124Z,101648.57
2017-08-26T01:09:00.650Z,101658.33
2017-08-26T01:11:30.220Z,101655.13
2017-08-26T01:13:59.748Z,101651.64
2017-08-26T01:16:29.545Z,101654.28
2017-08-26T01:18:59.046Z,101650.55
2017-08-26T01:21:28.753Z,101648.55
2017-08-26T01:23:58.293Z,101651.52
2017-08-26T01:26:26.920Z,101650.73
2017-08-26T01:28:56.044Z,101651.46
2017-08-26T01:31:26.068Z,101655.00
2017-08-26T01:33:56.723Z,101655.42
2017-08-26T01:36:25.137Z,101649.21
2017-08-26T01:38:54.247Z,101657.27
2017-08-26T01:41:22.029Z,101663.00
2017-08-26T01:43:50.753Z,101657.14
2017-08-26T01:46:21.181Z,101659.41
2017-08-26T01:48:49.176Z,101652.38
2017-08-26T01:51:19.145Z,101647.23
2017-08-26T01:53:47.073Z,101650.38
2017-08-26T01:56:17.912Z,101656.14
2017-08-26T01:58:46.513Z,101656.23
2017-08-26T02:01:15.269Z,101651.94
2017-08-26T02:03:44.089Z,101653.05
2017-08-26T02:06:14.577Z,101653.23
2017-08-26T02:08:42.879Z,101650.73
2017-08-26T02:11:13.112Z,101661.87
2017-08-26T02:13:42.506Z,101657.86
2017-08-26T02:16:11.048Z,101656.88
2017-08-26T02:18:41.281Z,101651.43
2017-08-26T02:21:11.068Z,101653.94
2017-08-26T02:23:41.317Z,101653.27
2017-08-26T02:26:10.241Z,101650.64
2017-08-26T02:28:38.216Z,101648.61
2017-08-26T02:31:08.575Z,101649.68
2017-08-26T02:33:38.268Z,101655.55
2017-08-26T02:36:07.299Z,101659.22
2017-08-26T02:38:37.369Z,101656.43
2017-08-26T02:41:07.503Z,101655.70
2017-08-26T02:43:35.771Z,101649.98
2017-08-26T02:46:06.479Z,101653.98
2017-08-26T02:48:35.501Z,101648.72
2017-08-26T02:51:04.180Z,101648.86
2017-08-26T02:53:35.355Z,101651.39
2017-08-26T02:56:06.073Z,101649.52
2017-08-26T02:58:35.445Z,101658.91
2017-08-26T03:01:04.020Z,101656.17
2017-08-26T03:03:31.954Z,101655.78
2017-08-26T03:06:03.679Z,101654.72
2017-08-26T03:08:32.057Z,101658.30
2017-08-26T03:11:01.786Z,101653.86
2017-08-26T03:13:30.869Z,101650.66
2017-08-26T03:15:59.764Z,101655.13
2017-08-26T03:18:33.078Z,101657.63
2017-08-26T03:21:02.197Z,101653.59
2017-08-26T03:23:31.560Z,101661.71
2017-08-26T03:26:02.372Z,101665.05
2017-08-26T03:28:33.147Z,101663.91
2017-08-26T03:31:01.021Z,101666.99
2017-08-26T03:33:32.283Z,101668.95
2017-08-26T03:36:00.591Z,101663.84
2017-08-26T03:38:30.125Z,101662.61
2017-08-26T03:43:34.989Z,101672.94
2017-08-26T03:46:04.232Z,101676.36
2017-08-26T03:48:34.848Z,101670.53
2017-08-26T03:51:03.029Z,101671.17
2017-08-26T03:53:33.566Z,101666.84
2017-08-26T03:56:02.933Z,101667.06
2017-08-26T03:58:31.261Z,101667.21
2017-08-26T04:01:01.672Z,101660.97
2017-08-26T04:03:31.369Z,101657.80
2017-08-26T04:06:00.405Z,101659.00
2017-08-26T04:08:30.532Z,101666.02
2017-08-26T04:11:00.185Z,101661.55
2017-08-26T04:13:30.310Z,101663.22
2017-08-26T04:16:00.270Z,101653.34
2017-08-26T04:18:29.236Z,101658.91
2017-08-26T04:20:57.994Z,101659.73
2017-08-26T04:23:26.969Z,101654.75
2017-08-26T04:25:56.649Z,101657.00
2017-08-26T04:28:27.871Z,101655.26
2017-08-26T04:31:00.760Z,101660.80
2017-08-26T04:33:29.696Z,101661.73
2017-08-26T04:35:59.177Z,101667.55
2017-08-26T04:38:29.003Z,101658.39
2017-08-26T04:40:59.149Z,101663.75
2017-08-26T04:43:28.087Z,101660.91
2017-08-26T04:45:57.296Z,101663.09
2017-08-26T04:48:26.085Z,101651.91
2017-08-26T04:50:56.019Z,101651.58
2017-08-26T04:53:26.483Z,101652.61
2017-08-26T04:55:55.668Z,101653.77
2017-08-26T04:58:24.721Z,101655.92
2017-08-26T05:00:55.825Z,101645.42
2017-08-26T05:03:26.458Z,101648.77
2017-08-26T05:05:56.133Z,101642.25
2017-08-26T05:08:25.449Z,101644.13
2017-08-26T05:10:53.842Z,101634.69
2017-08-26T05:13:22.138Z,101641.16
2017-08-26T05:15:50.114Z,101635.64
2017-08-26T05:18:18.761Z,101643.46
2017-08-26T05:20:47.846Z,101640.15
2017-08-26T05:23:18.386Z,101632.62
2017-08-26T05:25:48.332Z,101633.77
2017-08-26T05:28:16.655Z,101639.27
2017-08-26T05:30:47.081Z,101637.94
2017-08-26T05:33:16.722Z,101639.09
2017-08-26T05:35:49.734Z,101634.31
2017-08-26T05:38:18.091Z,101627.41
2017-08-26T05:40:47.769Z,101634.44
2017-08-26T05:43:17.842Z,101632.14
2017-08-26T05:45:47.156Z,101628.00
2017-08-26T05:48:16.303Z,101627.73
2017-08-26T05:50:46.226Z,101621.56
2017-08-26T05:53:14.777Z,101611.27
2017-08-26T05:55:45.433Z,101620.65
2017-08-26T05:58:14.211Z,101618.66
2017-08-26T06:00:44.278Z,101616.47
2017-08-26T06:03:15.857Z,101619.97
2017-08-26T06:05:44.545Z,101614.23
2017-08-26T06:08:14.796Z,101609.02
2017-08-26T06:10:43.725Z,101608.69
2017-08-26T06:13:11.519Z,101615.80
2017-08-26T06:15:40.120Z,101618.69
2017-08-26T06:18:13.756Z,101625.09
2017-08-26T06:20:48.716Z,101629.28
2017-08-26T06:23:17.317Z,101626.28
2017-08-26T06:25:48.174Z,101619.36
2017-08-26T06:28:19.899Z,101618.25
2017-08-26T06:30:47.829Z,101607.12
2017-08-26T06:33:17.823Z,101612.17
2017-08-26T06:35:46.325Z,101610.82
2017-08-26T06:38:15.378Z,101605.42
2017-08-26T06:40:45.573Z,101606.09
2017-08-26T06:43:14.774Z,101603.86
2017-08-26T06:45:45.224Z,101602.87
2017-08-26T06:48:13.588Z,101605.60
2017-08-26T06:50:44.703Z,101597.42
2017-08-26T06:53:17.642Z,101600.39
2017-08-26T06:55:48.149Z,101599.50
2017-08-26T06:58:17.747Z,101598.25
2017-08-26T07:00:45.788Z,101592.28
2017-08-26T07:03:15.345Z,101599.08
2017-08-26T07:05:45.237Z,101594.17
2017-08-26T07:08:15.714Z,101606.63
2017-08-26T07:10:43.979Z,101602.05
2017-08-26T07:13:12.600Z,101598.44
2017-08-26T07:15:41.466Z,101595.92
2017-08-26T07:18:11.191Z,101594.05
2017-08-26T07:20:39.774Z,101592.41
2017-08-26T07:23:09.699Z,101600.91
2017-08-26T07:25:38.017Z,101591.80
2017-08-26T07:28:06.577Z,101587.66
2017-08-26T07:30:36.363Z,101578.77
2017-08-26T07:33:04.837Z,101581.45
2017-08-26T07:35:33.564Z,101586.40
2017-08-26T07:38:02.163Z,101580.78
2017-08-26T07:40:31.385Z,101577.46
2017-08-26T07:42:59.239Z,101581.39
2017-08-26T07:45:28.153Z,101583.45
2017-08-26T07:47:57.705Z,101581.26
2017-08-26T07:50:28.876Z,101577.08
2017-08-26T07:52:58.705Z,101570.62
2017-08-26T07:55:26.965Z,101567.44
2017-08-26T07:57:54.755Z,101565.38
2017-08-26T08:00:22.593Z,101563.53
2017-08-26T08:02:51.669Z,101553.73
2017-08-26T08:05:19.466Z,101555.88
2017-08-26T08:07:48.284Z,101558.02
2017-08-26T08:10:16.166Z,101557.52
2017-08-26T08:12:44.451Z,101557.80
2017-08-26T08:15:13.661Z,101566.41
2017-08-26T08:17:41.962Z,101566.66
2017-08-26T08:20:12.094Z,101562.53
2017-08-26T08:22:43.288Z,101565.16
2017-08-26T08:25:11.358Z,101556.14
2017-08-26T08:27:41.950Z,101553.58
2017-08-26T08:30:11.829Z,101556.39
2017-08-26T08:32:42.221Z,101556.13
2017-08-26T08:35:12.685Z,101550.14
2017-08-26T08:37:42.022Z,101552.44
2017-08-26T08:40:10.481Z,101557.55
2017-08-26T08:42:39.012Z,101559.51
2017-08-26T08:45:09.284Z,101557.73
2017-08-26T08:47:39.029Z,101561.05
2017-08-26T08:50:10.109Z,101569.19
2017-08-26T08:52:39.999Z,101561.08
2017-08-26T08:55:08.037Z,101553.48
2017-08-26T08:57:37.254Z,101562.26
2017-08-26T09:00:08.252Z,101556.41
2017-08-26T09:02:38.014Z,101555.95
2017-08-26T09:05:06.275Z,101552.34
2017-08-26T09:07:34.679Z,101550.45
2017-08-26T09:10:04.009Z,101555.53
2017-08-26T09:12:32.195Z,101548.20
2017-08-26T09:15:02.131Z,101547.64
2017-08-26T09:17:30.153Z,101554.20
2017-08-26T09:20:00.162Z,101550.83
2017-08-26T09:22:29.105Z,101547.22
2017-08-26T09:24:59.800Z,101549.58
2017-08-26T09:27:30.764Z,101551.84
2017-08-26T09:30:01.080Z,101547.20
2017-08-26T09:32:31.228Z,101546.62
2017-08-26T09:35:01.065Z,101549.96
2017-08-26T09:37:29.889Z,101550.70
2017-08-26T09:39:59.817Z,101547.79
2017-08-26T09:42:28.673Z,101547.12
2017-08-26T09:44:57.238Z,101544.70
2017-08-26T09:47:28.575Z,101546.51
2017-08-26T09:49:59.292Z,101540.47
2017-08-26T09:52:27.371Z,101536.70
2017-08-26T09:54:56.095Z,101529.66
2017-08-26T09:57:25.357Z,101533.34
2017-08-26T09:59:53.824Z,101533.34
2017-08-26T10:02:22.749Z,101532.36
2017-08-26T10:04:52.543Z,101531.67
2017-08-26T10:07:20.722Z,101527.60
2017-08-26T10:09:49.843Z,101522.52
2017-08-26T10:12:18.216Z,101520.36
2017-08-26T10:14:48.490Z,101525.47
2017-08-26T10:17:16.943Z,101522.37
2017-08-26T10:19:47.194Z,101516.00
2017-08-26T10:22:18.777Z,101516.77
2017-08-26T10:24:47.663Z,101509.19
2017-08-26T10:27:15.956Z,101505.41
2017-08-26T10:29:45.069Z,101506.85
2017-08-26T10:32:14.578Z,101497.05
2017-08-26T10:34:43.510Z,101489.80
2017-08-26T10:37:13.474Z,101491.96
2017-08-26T10:39:42.944Z,101479.81
2017-08-26T10:42:11.863Z,101483.67
2017-08-26T10:44:40.636Z,101481.66
2017-08-26T10:47:09.668Z,101477.87
2017-08-26T10:49:39.276Z,101474.55
2017-08-26T10:52:08.624Z,101476.25
2017-08-26T10:54:37.757Z,101472.28
2017-08-26T10:57:05.609Z,101468.16
2017-08-26T10:59:39.181Z,101454.95
2017-08-26T11:02:07.194Z,101454.25
2017-08-26T11:04:36.062Z,101456.44
2017-08-26T11:07:05.972Z,101455.06
2017-08-26T11:09:35.526Z,101455.38
2017-08-26T11:12:03.477Z,101454.40
2017-08-26T11:14:31.453Z,101445.42
2017-08-26T11:17:00.972Z,101439.78
2017-08-26T11:19:29.208Z,101444.82
2017-08-26T11:21:59.496Z,101444.47
2017-08-26T11:24:28.171Z,101441.67
2017-08-26T11:26:56.640Z,101439.55
2017-08-26T11:29:26.161Z,101435.77
2017-08-26T11:31:54.861Z,101440.95
2017-08-26T11:34:25.741Z,101432.02
2017-08-26T11:36:54.094Z,101435.91
2017-08-26T11:39:22.797Z,101433.05
2017-08-26T11:41:51.084Z,101435.48
2017-08-26T11:44:19.863Z,101427.56
2017-08-26T11:46:47.750Z,101418.99
2017-08-26T11:49:16.736Z,101416.02
2017-08-26T11:51:45.348Z,101419.47
2017-08-26T11:54:16.643Z,101412.38
2017-08-26T11:56:45.377Z,101411.58
2017-08-26T11:59:13.798Z,101411.49
2017-08-26T12:01:41.779Z,101407.81
2017-08-26T12:04:11.697Z,101401.95
2017-08-26T12:06:39.486Z,101405.30
2017-08-26T12:09:08.158Z,101405.55
2017-08-26T12:11:37.195Z,101402.58
2017-08-26T12:14:06.242Z,101405.08
2017-08-26T12:16:36.425Z,101389.03
2017-08-26T12:19:06.296Z,101394.92
2017-08-26T12:21:35.414Z,101388.38
2017-08-26T12:24:05.255Z,101390.02
2017-08-26T12:26:34.973Z,101385.28
2017-08-26T12:29:05.072Z,101386.04
2017-08-26T12:31:34.103Z,101385.78
2017-08-26T12:34:02.124Z,101377.75
2017-08-26T12:36:33.165Z,101377.27
2017-08-26T12:39:01.345Z,101386.53
2017-08-26T12:41:29.758Z,101383.69
2017-08-26T12:44:00.289Z,101378.44
2017-08-26T12:46:30.117Z,101371.84
2017-08-26T12:48:58.165Z,101372.11
2017-08-26T12:51:26.425Z,101361.61
2017-08-26T12:53:55.124Z,101370.28
2017-08-26T12:56:25.618Z,101372.53
2017-08-26T12:58:55.049Z,101364.69
2017-08-26T13:01:23.305Z,101368.55
2017-08-26T13:03:51.590Z,101367.85
2017-08-26T13:06:21.079Z,101364.45
2017-08-26T13:08:50.053Z,101360.02
2017-08-26T13:11:19.648Z,101362.25
2017-08-26T13:13:48.345Z,101350.20
2017-08-26T13:16:19.313Z,101352.59
2017-08-26T13:21:22.281Z,101346.20
2017-08-26T13:23:52.493Z,101346.91
2017-08-26T13:26:22.375Z,101337.22
2017-08-26T13:28:52.452Z,101332.59
2017-08-26T13:31:21.368Z,101331.38
2017-08-26T13:33:51.548Z,101326.50
2017-08-26T13:36:20.620Z,101328.86
2017-08-26T13:38:50.467Z,101328.97
2017-08-26T13:41:21.293Z,101318.28
2017-08-26T13:43:52.531Z,101324.47
2017-08-26T13:46:21.472Z,101318.37
2017-08-26T13:48:51.687Z,101318.98
2017-08-26T13:51:19.733Z,101313.91
2017-08-26T13:53:48.732Z,101318.39
2017-08-26T13:56:17.834Z,101313.50
2017-08-26T13:58:45.997Z,101316.56
2017-08-26T14:01:16.960Z,101313.14
2017-08-26T14:03:47.240Z,101311.31
2017-08-26T14:06:17.481Z,101317.21
2017-08-26T14:08:45.750Z,101316.38
2017-08-26T14:11:16.078Z,101315.77
2017-08-26T14:13:45.715Z,101322.30
2017-08-26T14:16:14.534Z,101325.91
2017-08-26T14:18:43.744Z,101319.38
2017-08-26T14:21:13.573Z,101322.02
2017-08-26T14:23:42.678Z,101317.47
2017-08-26T14:26:11.440Z,101315.01
2017-08-26T14:28:40.794Z,101309.20
2017-08-26T14:31:09.020Z,101311.46
2017-08-26T14:33:38.245Z,101314.30
2017-08-26T14:36:07.128Z,101308.53
2017-08-26T14:38:35.532Z,101301.37
2017-08-26T14:41:06.256Z,101298.69
2017-08-26T14:43:35.288Z,101295.20
2017-08-26T14:46:03.469Z,101292.91
2017-08-26T14:48:31.692Z,101302.33
2017-08-26T14:51:01.159Z,101298.47
2017-08-26T14:53:31.245Z,101297.59
2017-08-26T14:56:00.925Z,101294.59
2017-08-26T14:58:30.520Z,101294.29
2017-08-26T15:00:58.697Z,101288.48
2017-08-26T15:03:28.541Z,101282.09
2017-08-26T15:05:58.554Z,101288.66
2017-08-26T15:08:27.408Z,101290.84
2017-08-26T15:10:56.596Z,101286.77
2017-08-26T15:13:25.402Z,101290.52
2017-08-26T15:15:54.593Z,101301.89
2017-08-26T15:18:24.687Z,101299.20
2017-08-26T15:20:52.931Z,101294.06
2017-08-26T15:23:23.166Z,101290.08
2017-08-26T15:25:52.319Z,101286.05
2017-08-26T15:28:20.839Z,101287.97
2017-08-26T15:30:49.675Z,101282.13
2017-08-26T15:33:19.127Z,101278.17
2017-08-26T15:35:46.989Z,101285.57
2017-08-26T15:38:19.392Z,101278.72
2017-08-26T15:40:48.268Z,101284.02
2017-08-26T15:43:16.413Z,101274.01
2017-08-26T15:45:46.087Z,101277.37
2017-08-26T15:48:14.895Z,101271.74
2017-08-26T15:50:44.024Z,101268.63
2017-08-26T15:53:14.799Z,101262.50
2017-08-26T15:55:45.471Z,101262.05
2017-08-26T15:58:15.205Z,101265.30
2017-08-26T16:00:44.291Z,101260.81
2017-08-26T16:03:14.222Z,101262.64
2017-08-26T16:05:43.991Z,101270.30
2017-08-26T16:08:13.147Z,101256.53
2017-08-26T16:10:41.077Z,101256.31
2017-08-26T16:13:09.578Z,101257.06
2017-08-26T16:15:38.666Z,101253.58
2017-08-26T16:18:06.956Z,101253.58
2017-08-26T16:20:36.662Z,101260.50
2017-08-26T16:23:04.606Z,101252.98
2017-08-26T16:25:35.211Z,101250.95
2017-08-26T16:28:06.396Z,101247.06
2017-08-26T16:30:35.354Z,101240.31
2017-08-26T16:33:03.673Z,101237.88
2017-08-26T16:35:35.081Z,101238.25
2017-08-26T16:38:03.639Z,101237.45
2017-08-26T16:40:33.724Z,101236.41
2017-08-26T16:43:02.806Z,101235.58
2017-08-26T16:45:31.064Z,101235.47
2017-08-26T16:48:02.925Z,101223.85
2017-08-26T16:50:30.955Z,101218.91
2017-08-26T16:52:58.754Z,101226.17
2017-08-26T16:55:27.562Z,101224.03
2017-08-26T16:57:56.860Z,101221.30
2017-08-26T17:00:26.833Z,101217.13
2017-08-26T17:02:55.626Z,101212.38
2017-08-26T17:05:24.327Z,101221.44
2017-08-26T17:07:54.373Z,101224.77
2017-08-26T17:10:25.119Z,101222.21
2017-08-26T17:12:54.450Z,101219.89
2017-08-26T17:15:23.550Z,101220.52
2017-08-26T17:17:51.810Z,101225.73
2017-08-26T17:20:20.872Z,101225.73
2017-08-26T17:22:51.471Z,101231.87
2017-08-26T17:25:20.732Z,101234.01
2017-08-26T17:27:48.762Z,101231.08
2017-08-26T17:30:17.308Z,101238.23
2017-08-26T17:32:45.306Z,101238.53
2017-08-26T17:35:15.037Z,101239.77
2017-08-26T17:37:44.144Z,101241.45
2017-08-26T17:40:13.396Z,101239.36
2017-08-26T17:42:45.242Z,101239.89
2017-08-26T17:45:14.261Z,101237.34
2017-08-26T17:47:43.978Z,101238.88
2017-08-26T17:50:14.663Z,101242.59
2017-08-26T17:52:45.186Z,101251.33
2017-08-26T17:55:15.099Z,101247.06
2017-08-26T17:57:43.985Z,101248.05
2017-08-26T18:00:12.565Z,101247.47
2017-08-26T18:02:40.625Z,101250.80
2017-08-26T18:05:08.689Z,101245.26
2017-08-26T18:07:37.864Z,101236.66
2017-08-26T18:10:08.583Z,101244.80
2017-08-26T18:12:37.531Z,101250.35
2017-08-26T18:15:07.389Z,101242.38
2017-08-26T18:17:36.527Z,101242.29
2017-08-26T18:20:04.817Z,101244.01
2017-08-26T18:22:32.860Z,101241.72
2017-08-26T18:25:01.756Z,101233.35
2017-08-26T18:27:29.884Z,101228.43
2017-08-26T18:29:57.796Z,101217.67
2017-08-26T18:32:27.081Z,101213.58
2017-08-26T18:34:55.105Z,101194.52
2017-08-26T18:37:24.528Z,101195.51
2017-08-26T18:39:52.583Z,101198.93
2017-08-26T18:42:22.844Z,101200.75
2017-08-26T18:44:52.719Z,101195.98
2017-08-26T18:47:21.883Z,101212.45
2017-08-26T18:49:51.054Z,101209.53
2017-08-26T18:52:19.809Z,101203.16
2017-08-26T18:54:49.043Z,101200.23
2017-08-26T18:57:18.290Z,101208.78
2017-08-26T18:59:46.175Z,101224.05
2017-08-26T19:02:15.910Z,101228.74
2017-08-26T19:04:46.042Z,101228.59
2017-08-26T19:07:17.181Z,101230.48
2017-08-26T19:09:55.149Z,101229.60
2017-08-26T19:12:25.632Z,101221.67
2017-08-26T19:14:54.735Z,101222.80
2017-08-26T19:17:23.456Z,101225.09
2017-08-26T19:19:53.770Z,101226.55
2017-08-26T19:22:23.160Z,101219.16
2017-08-26T19:24:52.429Z,101219.00
2017-08-26T19:27:20.599Z,101213.19
2017-08-26T19:29:50.554Z,101214.38
2017-08-26T19:32:19.319Z,101210.59
2017-08-26T19:34:49.658Z,101200.23
2017-08-26T19:37:18.005Z,101193.80
2017-08-26T19:39:48.340Z,101198.05
2017-08-26T19:42:18.656Z,101209.04
2017-08-26T19:44:48.236Z,101212.93
2017-08-26T19:47:16.104Z,101208.31
2017-08-26T19:49:46.532Z,101203.32
2017-08-26T19:52:17.528Z,101201.67
2017-08-26T19:54:46.828Z,101201.63
2017-08-26T19:57:16.843Z,101199.36
2017-08-26T19:59:45.522Z,101201.95
2017-08-26T20:02:16.895Z,101204.95
2017-08-26T20:04:46.026Z,101200.50
2017-08-26T20:07:17.756Z,101197.74
2017-08-26T20:09:46.205Z,101194.61
2017-08-26T20:12:15.004Z,101185.38
2017-08-26T20:14:45.155Z,101194.95
2017-08-26T20:17:14.967Z,101191.89
2017-08-26T20:19:45.073Z,101197.36
2017-08-26T20:22:14.877Z,101192.34
2017-08-26T20:24:45.706Z,101193.75
2017-08-26T20:27:15.807Z,101194.95
2017-08-26T20:29:44.943Z,101182.94
2017-08-26T20:34:48.840Z,101184.20
2017-08-26T20:37:18.342Z,101182.10
2017-08-26T20:39:50.489Z,101184.02
2017-08-26T20:42:19.033Z,101186.40
2017-08-26T20:44:48.185Z,101189.80
2017-08-26T20:47:16.757Z,101187.56
2017-08-26T20:49:45.534Z,101192.22
2017-08-26T20:52:15.574Z,101190.39
2017-08-26T20:54:45.398Z,101192.22
2017-08-26T20:57:15.348Z,101195.41
2017-08-26T20:59:47.038Z,101193.94
2017-08-26T21:02:14.965Z,101189.94
2017-08-26T21:04:43.267Z,101192.34
2017-08-26T21:07:12.770Z,101192.11
2017-08-26T21:09:41.905Z,101182.50
2017-08-26T21:12:13.315Z,101178.56
2017-08-26T21:14:42.045Z,101175.98
2017-08-26T21:17:10.138Z,101161.18
2017-08-26T21:19:40.281Z,101166.99
2017-08-26T21:22:08.610Z,101157.52
2017-08-26T21:24:37.427Z,101155.56
2017-08-26T21:27:05.638Z,101165.60
2017-08-26T21:29:34.740Z,101171.70
2017-08-26T21:32:04.671Z,101176.86
2017-08-26T21:34:34.939Z,101173.63
2017-08-26T21:37:02.701Z,101167.62
2017-08-26T21:39:31.182Z,101159.16
2017-08-26T21:42:01.958Z,101161.52
2017-08-26T21:44:30.903Z,101174.17
2017-08-26T21:47:01.297Z,101181.85
2017-08-26T21:49:32.231Z,101184.91
2017-08-26T21:52:01.941Z,101204.94
2017-08-26T21:54:31.353Z,101217.72
2017-08-26T21:56:59.246Z,101234.69
2017-08-26T21:59:28.572Z,101222.86
2017-08-26T22:01:57.010Z,101209.11
2017-08-26T22:04:26.648Z,101203.27
2017-08-26T22:06:55.044Z,101196.77
2017-08-26T22:09:26.389Z,101182.14
2017-08-26T22:11:54.416Z,101178.28
2017-08-26T22:14:22.870Z,101177.81
2017-08-26T22:16:51.713Z,101172.02
2017-08-26T22:19:20.565Z,101170.40
2017-08-26T22:21:49.422Z,101168.42
2017-08-26T22:24:18.346Z,101163.73
2017-08-26T22:26:46.593Z,101167.73
2017-08-26T22:29:15.528Z,101170.92
2017-08-26T22:31:43.572Z,101172.22
2017-08-26T22:34:12.425Z,101178.10
2017-08-26T22:36:44.097Z,101178.31
2017-08-26T22:39:12.023Z,101178.10
2017-08-26T22:41:43.637Z,101176.91
2017-08-26T22:44:13.556Z,101171.27
2017-08-26T22:46:41.929Z,101166.58
2017-08-26T22:49:11.920Z,101176.82
2017-08-26T22:51:41.319Z,101172.96
2017-08-26T22:54:09.929Z,101173.55
2017-08-26T22:56:38.857Z,101173.55
2017-08-26T22:59:07.524Z,101165.84
2017-08-26T23:01:35.767Z,101164.80
2017-08-26T23:04:06.399Z,101157.47
2017-08-26T23:06:34.378Z,101157.43
2017-08-26T23:09:03.351Z,101162.20
2017-08-26T23:11:32.986Z,101156.91
2017-08-26T23:14:02.836Z,101155.45
2017-08-26T23:16:32.068Z,101148.13
2017-08-26T23:19:01.044Z,101151.31
2017-08-26T23:21:29.917Z,101149.66
2017-08-26T23:23:59.826Z,101153.67
2017-08-26T23:26:28.512Z,101145.59
2017-08-26T23:28:57.693Z,101149.08
2017-08-26T23:31:26.960Z,101148.83
2017-08-26T23:33:55.972Z,101149.45
2017-08-26T23:36:25.184Z,101145.84
2017-08-26T23:38:54.320Z,101143.19
2017-08-26T23:41:23.491Z,101145.42
2017-08-26T23:43:52.315Z,101139.75
2017-08-26T23:46:21.033Z,101132.67
2017-08-26T23:48:49.614Z,101143.91
2017-08-26T23:51:18.679Z,101151.83
2017-08-26T23:53:49.285Z,101144.33
2017-08-26T23:56:18.132Z,101132.19
2017-08-26T23:58:47.015Z,101125.73
